Time;durP1;ratioP1;P1;durP2;ratioP2;P2;SDS_P1;SDS_P2;PMS_P1;PMS_P2;Temp;Humidity;BMP_temperature;BMP_pressure;BME280_temperature;BME280_humidity;BME280_pressure;Samples;Min_cycle;Max_cycle;Signal;HPM_P1;HPM_P2
2022/09/14 00:01:30;;;;;;;12.93;8.20;;;19.60;84.90;;;;;;5000662;28;20848;-75
2022/09/14 00:04:02;;;;;;;9.73;7.03;;;19.60;84.90;;;;;;5002053;28;20467;-75
2022/09/14 00:06:31;;;;;;;11.80;8.07;;;19.60;84.90;;;;;;5000237;28;20521;-75
2022/09/14 00:09:01;;;;;;;11.67;7.70;;;19.60;84.90;;;;;;4999789;28;20481;-75
2022/09/14 00:11:31;;;;;;;12.00;7.60;;;19.60;85.00;;;;;;5000573;28;20486;-75
2022/09/14 00:14:00;;;;;;;12.80;7.87;;;19.60;85.00;;;;;;5001824;28;20885;-75
2022/09/14 00:16:31;;;;;;;11.60;7.40;;;19.60;85.10;;;;;;5003455;28;20512;-75
2022/09/14 00:19:04;;;;;;;8.23;6.20;;;19.60;85.10;;;;;;5004009;28;20463;-75
2022/09/14 00:21:33;;;;;;;11.03;7.13;;;19.70;85.10;;;;;;5003011;28;20566;-75
2022/09/14 00:24:03;;;;;;;11.17;7.60;;;19.70;85.00;;;;;;5001876;28;20463;-75
2022/09/14 00:26:31;;;;;;;9.50;6.40;;;19.70;85.00;;;;;;5007425;28;20456;-75
2022/09/14 00:29:03;;;;;;;9.47;6.63;;;19.70;84.90;;;;;;5004694;28;20517;-75
2022/09/14 00:31:32;;;;;;;9.77;6.43;;;19.80;84.80;;;;;;4998523;28;20528;-75
2022/09/14 00:34:01;;;;;;;11.93;7.70;;;19.80;84.80;;;;;;5007806;28;20451;-75
2022/09/14 00:36:30;;;;;;;11.40;7.00;;;19.80;84.80;;;;;;5005182;28;20532;-75
2022/09/14 00:38:59;;;;;;;9.50;7.20;;;19.80;84.70;;;;;;5003445;28;20458;-75
2022/09/14 00:41:32;;;;;;;9.50;6.50;;;19.80;84.70;;;;;;5004513;28;20481;-75
2022/09/14 00:44:03;;;;;;;9.60;7.07;;;19.80;84.70;;;;;;5011347;28;20484;-75
2022/09/14 00:46:35;;;;;;;10.80;7.27;;;19.80;84.70;;;;;;5001038;28;20464;-75
2022/09/14 00:49:08;;;;;;;9.40;6.80;;;19.80;84.70;;;;;;5001505;28;21138;-75
2022/09/14 00:51:39;;;;;;;11.00;7.00;;;19.80;84.70;;;;;;4996198;28;20561;-75
2022/09/14 00:54:08;;;;;;;12.03;7.90;;;19.80;84.70;;;;;;5000695;28;20461;-75
2022/09/14 00:56:37;;;;;;;10.77;7.33;;;19.80;84.70;;;;;;5001327;28;20458;-76
2022/09/14 00:59:10;;;;;;;10.30;7.37;;;19.80;84.70;;;;;;5001705;28;20868;-75
2022/09/14 01:01:38;;;;;;;10.20;7.30;;;19.80;84.70;;;;;;5001874;28;20506;-75
2022/09/14 01:04:06;;;;;;;12.37;7.13;;;19.80;84.70;;;;;;5004695;28;20516;-75
2022/09/14 01:06:40;;;;;;;8.60;6.30;;;19.80;84.70;;;;;;5000476;28;20455;-75
2022/09/14 01:09:20;;;;;;;12.17;6.43;;;19.80;84.70;;;;;;4995119;28;20486;-75
2022/09/14 01:12:09;;;;;;;13.10;7.90;;;19.80;84.70;;;;;;5000085;28;20548;-75
2022/09/14 01:14:43;;;;;;;14.93;7.43;;;19.80;84.80;;;;;;5001155;28;20469;-75
2022/09/14 01:17:16;;;;;;;10.40;7.63;;;19.80;84.80;;;;;;5000404;28;21152;-75
2022/09/14 01:20:09;;;;;;;11.77;8.07;;;19.80;84.80;;;;;;5003086;28;20453;-75
2022/09/14 01:22:43;;;;;;;13.40;8.30;;;19.80;84.80;;;;;;5003229;28;20502;-75
2022/09/14 01:25:28;;;;;;;16.17;10.00;;;19.80;84.90;;;;;;5000365;28;20554;-75
2022/09/14 01:28:00;;;;;;;10.83;8.13;;;19.70;84.90;;;;;;4998444;28;20865;-75
2022/09/14 01:30:31;;;;;;;8.97;7.17;;;19.70;85.00;;;;;;4998885;28;20960;-75
2022/09/14 01:33:04;;;;;;;13.63;7.13;;;19.70;85.00;;;;;;5000948;28;20478;-75
2022/09/14 01:35:38;;;;;;;11.30;7.17;;;19.70;85.00;;;;;;5001868;28;20483;-75
2022/09/14 01:38:11;;;;;;;15.40;8.40;;;19.70;85.10;;;;;;5004190;28;21004;-75
2022/09/14 01:40:42;;;;;;;14.10;8.70;;;19.70;85.20;;;;;;5015479;28;20483;-75
2022/09/14 01:43:17;;;;;;;12.27;8.50;;;19.70;85.20;;;;;;4998452;28;20469;-75
2022/09/14 01:45:50;;;;;;;16.10;8.90;;;19.70;85.20;;;;;;5001742;28;20481;-75
2022/09/14 01:48:23;;;;;;;12.93;9.00;;;19.70;85.10;;;;;;4998245;28;20496;-75
2022/09/14 01:50:56;;;;;;;12.77;8.80;;;19.70;85.10;;;;;;5004135;28;20486;-75
2022/09/14 01:53:30;;;;;;;14.03;8.43;;;19.70;85.10;;;;;;5001009;28;20483;-75
2022/09/14 01:56:02;;;;;;;14.17;8.47;;;19.60;85.20;;;;;;4999852;28;20493;-75
2022/09/14 01:58:36;;;;;;;13.70;8.03;;;19.60;85.30;;;;;;4997759;28;20447;-75
2022/09/14 02:01:07;;;;;;;14.73;8.10;;;19.60;85.40;;;;;;4997883;28;20532;-75
2022/09/14 02:03:41;;;;;;;10.67;7.50;;;19.60;85.60;;;;;;4998008;28;20683;-75
2022/09/14 02:06:15;;;;;;;13.50;8.77;;;19.60;85.60;;;;;;4999739;28;20480;-75
2022/09/14 02:08:43;;;;;;;14.90;10.27;;;19.60;85.60;;;;;;5001219;28;20511;-75
2022/09/14 02:11:11;;;;;;;12.73;7.87;;;19.60;85.60;;;;;;4994341;28;20485;-75
2022/09/14 02:13:42;;;;;;;11.57;8.47;;;19.60;85.60;;;;;;5013668;28;20557;-75
2022/09/14 02:16:10;;;;;;;11.70;7.80;;;19.70;85.60;;;;;;4999676;28;20504;-75
2022/09/14 02:18:38;;;;;;;11.33;7.80;;;19.70;85.60;;;;;;4999669;28;20493;-75
2022/09/14 02:21:12;;;;;;;11.47;8.70;;;19.70;85.60;;;;;;4996247;28;20525;-75
2022/09/14 02:23:39;;;;;;;11.37;8.40;;;19.70;85.60;;;;;;5000847;28;20520;-75
2022/09/14 02:26:08;;;;;;;11.33;7.60;;;19.70;85.60;;;;;;4999350;28;21026;-75
2022/09/14 02:28:36;;;;;;;13.67;8.97;;;19.70;85.60;;;;;;5005210;28;20545;-76
2022/09/14 02:31:16;;;;;;;11.10;8.33;;;19.70;85.60;;;;;;5000795;28;20468;-75
2022/09/14 02:33:52;;;;;;;14.10;8.90;;;19.70;85.60;;;;;;4999841;28;20500;-75
2022/09/14 02:36:28;;;;;;;13.80;9.10;;;19.70;85.60;;;;;;4995904;28;20551;-75
2022/09/14 02:39:01;;;;;;;13.10;8.80;;;19.70;85.60;;;;;;4997792;28;20459;-75
2022/09/14 02:41:38;;;;;;;13.17;9.27;;;19.70;85.60;;;;;;4998933;28;21021;-75
2022/09/14 02:44:17;;;;;;;14.03;8.87;;;19.70;85.60;;;;;;5002694;28;20493;-76
2022/09/14 02:46:54;;;;;;;13.80;9.13;;;19.70;85.70;;;;;;5005136;28;20868;-75
2022/09/14 02:49:37;;;;;;;14.70;9.77;;;19.70;85.70;;;;;;5002699;28;20478;-75
2022/09/14 02:52:12;;;;;;;15.47;10.27;;;19.70;85.70;;;;;;4998620;28;20779;-75
2022/09/14 02:54:48;;;;;;;13.03;9.90;;;19.70;85.70;;;;;;4993673;28;20458;-75
2022/09/14 02:57:16;;;;;;;16.00;9.67;;;19.70;85.80;;;;;;4996788;28;20530;-75
2022/09/14 02:59:44;;;;;;;12.50;9.80;;;19.70;85.80;;;;;;4996969;28;20455;-75
2022/09/14 03:02:13;;;;;;;16.83;10.27;;;19.70;85.80;;;;;;4994119;28;20519;-75
2022/09/14 03:04:41;;;;;;;15.53;10.60;;;19.70;85.80;;;;;;4992914;28;21169;-75
2022/09/14 03:07:09;;;;;;;14.30;9.27;;;19.70;85.80;;;;;;4994176;28;20458;-75
2022/09/14 03:09:37;;;;;;;15.80;9.60;;;19.60;85.90;;;;;;4995652;28;21087;-75
2022/09/14 03:12:05;;;;;;;12.50;9.70;;;19.60;85.90;;;;;;5000750;28;20508;-76
2022/09/14 03:14:33;;;;;;;14.70;10.77;;;19.70;85.90;;;;;;4998344;28;20450;-75
2022/09/14 03:17:01;;;;;;;16.83;11.30;;;19.60;85.90;;;;;;4999299;28;20869;-75
2022/09/14 03:19:30;;;;;;;20.63;13.70;;;19.60;85.90;;;;;;4998367;28;21012;-75
2022/09/14 03:21:58;;;;;;;19.53;13.90;;;19.50;85.90;;;;;;4998672;28;20482;-75
2022/09/14 03:24:26;;;;;;;19.53;13.43;;;19.50;86.00;;;;;;4995221;28;20466;-75
2022/09/14 03:26:54;;;;;;;18.23;13.93;;;19.40;86.10;;;;;;4993272;28;21165;-75
2022/09/14 03:29:22;;;;;;;19.37;12.70;;;19.40;86.30;;;;;;4998435;28;20549;-75
2022/09/14 03:31:50;;;;;;;19.00;12.30;;;19.40;86.30;;;;;;4998303;28;20543;-75
2022/09/14 03:34:18;;;;;;;23.43;13.60;;;19.40;86.40;;;;;;5002390;28;20500;-75
2022/09/14 03:36:47;;;;;;;19.07;13.80;;;19.40;86.30;;;;;;4998271;28;20504;-75
2022/09/14 03:39:15;;;;;;;17.50;12.70;;;19.40;86.30;;;;;;5002625;28;20575;-75
2022/09/14 03:41:43;;;;;;;18.83;13.30;;;19.40;86.30;;;;;;4995503;28;20547;-75
2022/09/14 03:44:11;;;;;;;20.17;14.57;;;19.40;86.40;;;;;;4993830;28;20486;-75
2022/09/14 03:46:39;;;;;;;27.70;15.10;;;19.40;86.50;;;;;;4996249;28;20493;-75
2022/09/14 03:49:07;;;;;;;17.97;13.50;;;19.50;86.50;;;;;;5000695;28;20462;-75
2022/09/14 03:51:35;;;;;;;23.57;13.90;;;19.50;86.40;;;;;;4999246;28;20525;-75
2022/09/14 03:54:04;;;;;;;19.53;13.27;;;19.50;86.40;;;;;;4997976;28;20487;-75
2022/09/14 03:56:32;;;;;;;18.93;13.00;;;19.50;86.30;;;;;;5000669;28;20498;-75
2022/09/14 03:59:00;;;;;;;20.80;14.10;;;19.50;86.20;;;;;;4999873;28;20501;-75
2022/09/14 04:01:28;;;;;;;19.07;13.90;;;19.50;86.20;;;;;;4995745;28;20495;-75
2022/09/14 04:03:56;;;;;;;21.97;13.70;;;19.50;86.20;;;;;;5015315;28;20912;-75
2022/09/14 04:06:24;;;;;;;19.27;12.50;;;19.50;86.10;;;;;;5000427;28;20462;-75
2022/09/14 04:08:54;;;;;;;21.07;14.90;;;19.50;86.30;;;;;;5001707;28;20484;-75
2022/09/14 04:11:24;;;;;;;21.43;14.27;;;19.50;86.30;;;;;;4998075;28;20497;-75
2022/09/14 04:13:53;;;;;;;21.27;14.73;;;19.50;86.30;;;;;;4999672;28;20481;-75
2022/09/14 04:16:21;;;;;;;21.57;14.83;;;19.50;86.30;;;;;;5002809;28;20544;-75
2022/09/14 04:18:49;;;;;;;23.00;16.07;;;19.50;86.20;;;;;;5004922;28;20460;-75
2022/09/14 04:21:20;;;;;;;20.00;14.13;;;19.40;86.20;;;;;;4994736;28;20477;-75
2022/09/14 04:23:48;;;;;;;21.07;14.10;;;19.40;86.20;;;;;;4995973;28;20528;-75
2022/09/14 04:26:37;;;;;;;17.07;13.37;;;19.40;86.30;;;;;;5002835;28;20970;-75
2022/09/14 04:29:06;;;;;;;20.10;13.27;;;19.40;86.30;;;;;;5003279;28;20787;-75
2022/09/14 04:31:34;;;;;;;18.90;13.07;;;19.40;86.40;;;;;;4995292;28;20576;-76
2022/09/14 04:34:02;;;;;;;19.47;14.00;;;19.40;86.40;;;;;;4996098;28;20457;-75
2022/09/14 04:36:31;;;;;;;19.60;14.10;;;19.40;86.30;;;;;;4997011;28;20512;-75
2022/09/14 04:39:00;;;;;;;21.77;14.80;;;19.40;86.20;;;;;;5002484;28;20497;-75
2022/09/14 04:41:30;;;;;;;21.30;14.77;;;19.30;86.20;;;;;;4999753;28;20520;-75
2022/09/14 04:43:59;;;;;;;19.77;15.40;;;19.30;86.10;;;;;;5004645;28;20466;-75
2022/09/14 04:46:29;;;;;;;20.60;14.53;;;19.20;86.20;;;;;;5003115;28;20449;-75
2022/09/14 04:48:58;;;;;;;19.50;13.40;;;19.20;86.40;;;;;;5007355;28;20458;-75
2022/09/14 04:51:28;;;;;;;21.47;13.70;;;19.20;86.50;;;;;;5004746;28;20490;-75
2022/09/14 04:53:58;;;;;;;19.40;14.07;;;19.30;86.50;;;;;;5002620;28;20465;-75
2022/09/14 04:56:27;;;;;;;17.33;12.83;;;19.30;86.40;;;;;;5006605;28;20468;-75
2022/09/14 04:58:57;;;;;;;20.00;14.07;;;19.30;86.40;;;;;;5020496;28;20527;-75
2022/09/14 05:01:29;;;;;;;24.00;14.10;;;19.30;86.40;;;;;;5005615;28;20572;-75
2022/09/14 05:03:57;;;;;;;20.67;13.20;;;19.30;86.30;;;;;;5009786;28;20445;-75
2022/09/14 05:06:27;;;;;;;22.40;13.00;;;19.40;86.30;;;;;;5002225;28;20461;-75
2022/09/14 05:08:56;;;;;;;19.30;13.10;;;19.40;86.30;;;;;;5002359;28;20471;-75
2022/09/14 05:11:26;;;;;;;17.57;11.43;;;19.40;86.30;;;;;;5000374;28;20497;-75
2022/09/14 05:13:55;;;;;;;19.93;11.50;;;19.40;86.20;;;;;;5003720;28;20454;-75
2022/09/14 05:16:26;;;;;;;19.30;12.23;;;19.40;86.20;;;;;;4997977;28;20458;-75
2022/09/14 05:18:55;;;;;;;18.23;11.83;;;19.40;86.00;;;;;;5003079;28;20464;-75
2022/09/14 05:21:24;;;;;;;17.47;11.57;;;19.30;86.00;;;;;;4999578;28;20559;-75
2022/09/14 05:23:56;;;;;;;20.20;10.90;;;19.30;86.10;;;;;;5004372;28;20470;-75
2022/09/14 05:26:25;;;;;;;17.73;11.00;;;19.20;86.20;;;;;;5001330;28;20552;-75
2022/09/14 05:28:55;;;;;;;19.33;10.93;;;19.20;86.20;;;;;;5004637;28;20755;-75
2022/09/14 05:31:26;;;;;;;19.20;11.60;;;19.20;86.30;;;;;;5001216;28;20490;-75
2022/09/14 05:33:54;;;;;;;16.20;10.87;;;19.20;86.40;;;;;;5000004;28;20520;-75
2022/09/14 05:36:22;;;;;;;16.67;11.17;;;19.20;86.40;;;;;;5002541;28;20461;-75
2022/09/14 05:38:51;;;;;;;15.37;10.50;;;19.30;86.40;;;;;;4998786;28;20742;-75
2022/09/14 05:41:19;;;;;;;21.83;12.17;;;19.30;86.40;;;;;;5004566;28;20503;-75
2022/09/14 05:43:47;;;;;;;14.10;10.07;;;19.30;86.40;;;;;;5000353;28;20484;-75
2022/09/14 05:46:18;;;;;;;18.43;12.80;;;19.40;86.40;;;;;;5001521;28;20463;-75
2022/09/14 05:48:50;;;;;;;17.73;12.70;;;19.40;86.30;;;;;;5001573;28;21058;-76
2022/09/14 05:51:20;;;;;;;16.60;11.90;;;19.40;86.30;;;;;;5005408;28;20501;-75
2022/09/14 05:53:49;;;;;;;19.77;13.13;;;19.40;86.20;;;;;;5003187;28;20490;-76
2022/09/14 05:56:18;;;;;;;17.70;12.60;;;19.40;86.20;;;;;;5002339;28;20463;-74
2022/09/14 05:58:47;;;;;;;17.07;11.93;;;19.40;86.20;;;;;;5006140;28;21137;-75
2022/09/14 06:01:16;;;;;;;17.60;11.20;;;19.40;86.30;;;;;;5004449;28;20520;-75
2022/09/14 06:03:45;;;;;;;18.77;12.63;;;19.40;86.30;;;;;;5002952;28;20981;-75
2022/09/14 06:06:17;;;;;;;17.40;12.90;;;19.40;86.30;;;;;;4998085;28;20886;-75
2022/09/14 06:08:48;;;;;;;17.23;11.33;;;19.40;86.30;;;;;;5005870;28;20465;-75
2022/09/14 06:11:19;;;;;;;18.80;12.07;;;19.40;86.30;;;;;;5001098;28;20489;-75
2022/09/14 06:13:48;;;;;;;18.30;11.87;;;19.50;86.30;;;;;;4996915;28;21289;-75
2022/09/14 06:16:18;;;;;;;14.57;10.80;;;19.50;86.30;;;;;;4998553;28;20458;-75
2022/09/14 06:18:47;;;;;;;17.70;12.03;;;19.50;86.30;;;;;;4998463;28;20492;-75
2022/09/14 06:21:19;;;;;;;19.13;11.20;;;19.50;86.30;;;;;;5007411;28;20551;-75
2022/09/14 06:23:49;;;;;;;18.03;10.67;;;19.50;86.20;;;;;;5004068;28;21212;-76
2022/09/14 06:26:17;;;;;;;16.20;12.40;;;19.50;86.10;;;;;;5002192;28;20968;-75
2022/09/14 06:28:45;;;;;;;15.83;11.60;;;19.50;86.20;;;;;;5002813;28;20872;-76
2022/09/14 06:31:13;;;;;;;18.40;12.17;;;19.50;86.20;;;;;;5000828;28;20967;-75
2022/09/14 06:33:44;;;;;;;20.60;12.07;;;19.50;86.30;;;;;;5002996;28;20493;-75
2022/09/14 06:36:14;;;;;;;14.13;11.70;;;19.50;86.30;;;;;;4999669;28;20498;-75
2022/09/14 06:38:43;;;;;;;20.40;12.50;;;19.50;86.30;;;;;;5000923;28;20456;-75
2022/09/14 06:41:13;;;;;;;16.13;11.40;;;19.50;86.30;;;;;;4999789;28;20500;-76
2022/09/14 06:43:42;;;;;;;13.97;10.30;;;19.50;86.20;;;;;;5003276;28;20465;-75
2022/09/14 06:46:13;;;;;;;15.70;10.83;;;19.50;86.20;;;;;;4996875;28;21151;-75
2022/09/14 06:48:44;;;;;;;18.70;12.03;;;19.50;86.20;;;;;;4999886;28;20967;-75
2022/09/14 06:51:15;;;;;;;18.30;12.70;;;19.50;86.20;;;;;;4997164;28;20455;-76
2022/09/14 06:53:44;;;;;;;16.33;11.90;;;19.50;86.20;;;;;;5005885;28;20496;-76
2022/09/14 06:56:13;;;;;;;15.83;11.73;;;19.50;86.20;;;;;;4998793;28;20468;-75
2022/09/14 06:58:41;;;;;;;19.27;12.43;;;19.50;86.20;;;;;;5002275;28;20528;-76
2022/09/14 07:01:11;;;;;;;18.67;11.97;;;19.50;86.30;;;;;;5002622;28;20559;-76
2022/09/14 07:03:40;;;;;;;18.73;11.40;;;19.50;86.30;;;;;;4999052;28;20457;-75
2022/09/14 07:06:09;;;;;;;18.13;12.10;;;19.50;86.30;;;;;;4999988;28;20796;-75
2022/09/14 07:08:39;;;;;;;16.90;12.23;;;19.60;86.30;;;;;;4998384;28;21221;-76
2022/09/14 07:11:10;;;;;;;18.27;11.40;;;19.60;86.30;;;;;;4999033;28;20457;-76
2022/09/14 07:13:38;;;;;;;17.53;12.23;;;19.60;86.30;;;;;;5016133;28;20467;-76
2022/09/14 07:16:06;;;;;;;16.13;12.13;;;19.60;86.20;;;;;;5004135;28;20454;-75
2022/09/14 07:18:35;;;;;;;20.57;12.23;;;19.60;86.30;;;;;;5000238;28;21048;-76
2022/09/14 07:21:03;;;;;;;17.53;11.63;;;19.60;86.20;;;;;;5003351;28;20972;-75
2022/09/14 07:23:32;;;;;;;17.73;12.87;;;19.60;86.30;;;;;;5001792;28;20446;-76
2022/09/14 07:26:03;;;;;;;16.80;11.40;;;19.60;86.30;;;;;;4997499;28;20516;-76
2022/09/14 07:28:32;;;;;;;21.33;12.77;;;19.60;86.30;;;;;;4999674;28;20463;-76
2022/09/14 07:31:01;;;;;;;19.50;11.27;;;19.60;86.30;;;;;;4995974;28;20462;-75
2022/09/14 07:33:29;;;;;;;20.37;12.17;;;19.60;86.30;;;;;;4999182;28;20504;-76
2022/09/14 07:36:05;;;;;;;17.00;12.23;;;19.70;86.30;;;;;;4997160;28;21415;-75
2022/09/14 07:38:33;;;;;;;21.63;15.20;;;19.60;86.30;;;;;;4997254;28;20468;-75
2022/09/14 07:41:19;;;;;;;16.97;12.80;;;19.70;86.40;;;;;;4996557;28;20565;-76
2022/09/14 07:43:49;;;;;;;23.10;15.00;;;19.70;86.40;;;;;;4997847;28;20552;-75
2022/09/14 07:46:18;;;;;;;18.77;14.37;;;19.70;86.40;;;;;;4996950;28;21067;-75
2022/09/14 07:48:47;;;;;;;22.23;14.77;;;19.70;86.50;;;;;;4997837;28;20466;-75
2022/09/14 07:51:16;;;;;;;18.93;14.07;;;19.70;86.50;;;;;;5002578;28;20831;-75
2022/09/14 07:53:44;;;;;;;18.63;13.57;;;19.70;86.50;;;;;;5000065;28;20481;-75
2022/09/14 07:56:15;;;;;;;19.07;13.60;;;19.80;86.50;;;;;;5000837;28;20698;-75
2022/09/14 07:58:43;;;;;;;17.93;12.90;;;19.80;86.50;;;;;;5001470;28;20455;-76
2022/09/14 08:01:16;;;;;;;21.50;15.07;;;19.80;86.40;;;;;;4999914;28;20475;-75
2022/09/14 08:03:47;;;;;;;22.60;13.10;;;19.80;86.40;;;;;;5000158;28;20447;-76
2022/09/14 08:06:17;;;;;;;17.83;13.63;;;19.80;86.40;;;;;;4996463;28;20454;-75
2022/09/14 08:08:47;;;;;;;16.83;11.90;;;19.80;86.50;;;;;;4998354;28;20465;-75
2022/09/14 08:11:18;;;;;;;20.80;12.63;;;19.80;86.50;;;;;;4997747;28;20451;-76
2022/09/14 08:13:49;;;;;;;18.83;11.90;;;19.90;86.60;;;;;;4999650;28;20472;-76
2022/09/14 08:16:19;;;;;;;19.33;11.00;;;19.90;86.50;;;;;;5004968;28;21014;-76
2022/09/14 08:18:48;;;;;;;16.50;10.90;;;19.90;86.50;;;;;;5008738;28;20455;-76
2022/09/14 08:21:17;;;;;;;17.00;11.70;;;19.90;86.50;;;;;;4998979;28;20458;-75
2022/09/14 08:23:45;;;;;;;15.67;10.17;;;20.00;86.40;;;;;;5003387;28;20470;-75
2022/09/14 08:26:14;;;;;;;13.50;9.83;;;20.00;86.40;;;;;;5002385;28;21035;-75
2022/09/14 08:28:43;;;;;;;12.80;9.27;;;20.00;86.40;;;;;;5003035;28;20533;-75
2022/09/14 08:31:12;;;;;;;13.03;9.40;;;20.00;86.30;;;;;;5005038;28;20554;-75
2022/09/14 08:33:44;;;;;;;14.37;10.30;;;20.00;86.30;;;;;;5003277;28;20521;-75
2022/09/14 08:36:13;;;;;;;14.43;8.23;;;20.10;86.40;;;;;;4999184;28;20555;-75
2022/09/14 08:38:41;;;;;;;13.37;8.40;;;20.10;86.40;;;;;;5004365;28;20861;-75
2022/09/14 08:41:18;;;;;;;13.87;9.63;;;20.10;86.50;;;;;;5001645;28;20538;-75
2022/09/14 08:43:46;;;;;;;12.70;9.10;;;20.20;86.40;;;;;;5002694;28;20442;-75
2022/09/14 08:46:25;;;;;;;13.57;9.53;;;20.20;86.40;;;;;;4998816;28;20937;-75
2022/09/14 08:48:54;;;;;;;12.60;8.97;;;20.20;86.40;;;;;;5003205;28;20460;-75
2022/09/14 08:51:22;;;;;;;13.20;8.50;;;20.20;86.30;;;;;;5000018;28;20445;-75
2022/09/14 08:53:52;;;;;;;12.07;8.27;;;20.20;86.30;;;;;;5007213;28;21016;-75
2022/09/14 08:56:24;;;;;;;12.50;8.87;;;20.30;86.30;;;;;;5005549;28;20471;-75
2022/09/14 08:59:08;;;;;;;11.93;8.20;;;20.30;86.30;;;;;;5004720;28;20458;-75
2022/09/14 09:01:42;;;;;;;11.07;8.43;;;20.30;86.30;;;;;;5003809;28;20479;-78
2022/09/14 09:04:30;;;;;;;10.80;7.63;;;20.30;86.30;;;;;;5004470;28;20520;-75
2022/09/14 09:07:05;;;;;;;12.23;7.73;;;20.30;86.20;;;;;;4996583;28;21111;-75
2022/09/14 09:09:42;;;;;;;11.23;7.43;;;20.30;86.30;;;;;;5008351;28;20481;-75
2022/09/14 09:12:14;;;;;;;10.13;7.87;;;20.30;86.20;;;;;;5003016;28;20512;-74
2022/09/14 09:14:46;;;;;;;12.20;8.10;;;20.30;86.20;;;;;;4998322;28;20933;-75
2022/09/14 09:17:18;;;;;;;11.63;7.93;;;20.30;86.30;;;;;;5001595;28;20517;-75
2022/09/14 09:19:56;;;;;;;13.17;8.17;;;20.30;86.40;;;;;;5004753;28;20621;-75
2022/09/14 09:22:28;;;;;;;10.27;7.17;;;20.30;86.40;;;;;;4996542;28;20490;-75
2022/09/14 09:24:57;;;;;;;10.13;7.80;;;20.40;86.40;;;;;;5004412;28;20499;-75
2022/09/14 09:27:26;;;;;;;11.70;7.47;;;20.40;86.50;;;;;;5001488;28;20971;-75
2022/09/14 09:29:54;;;;;;;10.70;7.40;;;20.50;86.30;;;;;;4999586;28;20550;-76
2022/09/14 09:32:27;;;;;;;13.07;8.47;;;20.50;86.30;;;;;;5007098;28;20497;-75
2022/09/14 09:35:19;;;;;;;12.17;7.50;;;20.50;86.30;;;;;;5000284;28;20470;-75
2022/09/14 09:37:59;;;;;;;10.63;8.23;;;20.60;86.30;;;;;;5012737;28;20490;-75
2022/09/14 09:40:35;;;;;;;9.90;6.70;;;20.60;86.30;;;;;;5004831;28;20522;-74
2022/09/14 09:43:08;;;;;;;8.67;6.80;;;20.60;86.30;;;;;;5004044;28;20527;-75
2022/09/14 09:45:53;;;;;;;11.97;8.10;;;20.60;86.30;;;;;;5010645;28;21080;-74
2022/09/14 09:48:24;;;;;;;10.00;7.17;;;20.70;86.20;;;;;;5004151;28;20510;-75
2022/09/14 09:51:04;;;;;;;9.20;7.13;;;20.70;86.20;;;;;;5006897;28;20458;-75
2022/09/14 09:53:34;;;;;;;7.93;5.40;;;20.70;86.20;;;;;;5012558;28;20532;-75
2022/09/14 09:56:03;;;;;;;9.90;6.97;;;20.70;86.10;;;;;;5008983;28;20522;-77
2022/09/14 09:58:34;;;;;;;7.77;5.80;;;20.70;86.10;;;;;;5011111;28;20951;-77
2022/09/14 10:01:04;;;;;;;8.30;5.70;;;20.70;86.10;;;;;;5009375;28;20480;-76
2022/09/14 10:03:40;;;;;;;7.23;5.10;;;20.70;86.10;;;;;;5010863;28;20459;-77
2022/09/14 10:06:13;;;;;;;6.87;5.23;;;20.70;86.10;;;;;;4998007;28;20453;-77
2022/09/14 10:08:43;;;;;;;8.00;5.20;;;20.70;86.10;;;;;;5015754;28;20464;-77
2022/09/14 10:11:30;;;;;;;7.80;4.87;;;20.70;86.20;;;;;;5001846;28;20465;-76
2022/09/14 10:13:59;;;;;;;7.57;4.93;;;20.70;86.20;;;;;;5004254;28;20480;-77
2022/09/14 10:16:34;;;;;;;8.37;4.80;;;20.80;86.20;;;;;;5002242;28;20882;-77
2022/09/14 10:19:03;;;;;;;7.83;4.73;;;20.80;86.20;;;;;;5000827;28;20514;-77
2022/09/14 10:21:32;;;;;;;8.17;5.20;;;20.80;86.20;;;;;;4998674;28;20478;-77
2022/09/14 10:24:06;;;;;;;9.10;5.37;;;20.80;86.20;;;;;;4998052;28;20893;-75
2022/09/14 10:26:36;;;;;;;8.30;5.43;;;20.80;86.10;;;;;;4997528;28;21218;-75
2022/09/14 10:29:34;;;;;;;8.10;5.70;;;20.80;86.10;;;;;;5000497;28;21290;-75
2022/09/14 10:32:11;;;;;;;8.80;5.70;;;20.80;86.10;;;;;;4998055;28;21002;-75
2022/09/14 10:34:39;;;;;;;7.63;5.80;;;20.70;86.30;;;;;;4996546;28;20919;-75
2022/09/14 10:37:23;;;;;;;7.93;5.93;;;20.80;86.30;;;;;;5000450;28;20537;-75
2022/09/14 10:40:04;;;;;;;9.13;5.73;;;20.80;86.30;;;;;;4999025;28;20537;-75
2022/09/14 10:42:39;;;;;;;10.10;6.20;;;20.80;86.40;;;;;;4993851;28;20550;-76
2022/09/14 10:45:18;;;;;;;8.00;6.27;;;20.90;86.40;;;;;;4995353;28;20492;-76
2022/09/14 10:48:05;;;;;;;10.23;6.73;;;20.90;86.50;;;;;;5000909;28;20515;-75
2022/09/14 10:50:44;;;;;;;11.30;7.70;;;20.90;86.50;;;;;;4997426;28;20460;-76
2022/09/14 10:53:28;;;;;;;10.47;8.77;;;21.00;86.50;;;;;;5000775;28;20539;-75
2022/09/14 10:56:02;;;;;;;11.70;8.07;;;21.10;86.50;;;;;;5002240;28;21228;-75
2022/09/14 10:58:44;;;;;;;11.07;9.20;;;21.10;86.30;;;;;;5001816;28;20542;-75
2022/09/14 11:01:31;;;;;;;10.73;8.50;;;21.20;86.20;;;;;;4996479;28;20467;-76
2022/09/14 11:04:17;;;;;;;10.10;8.67;;;21.20;86.10;;;;;;4998951;28;20467;-75
2022/09/14 11:06:53;;;;;;;10.80;9.33;;;21.20;86.10;;;;;;4998221;28;20482;-75
2022/09/14 11:09:26;;;;;;;12.50;10.30;;;21.20;86.10;;;;;;4997669;28;20509;-77
2022/09/14 11:12:08;;;;;;;12.50;10.07;;;21.20;86.00;;;;;;5001274;28;20534;-77
2022/09/14 11:15:03;;;;;;;13.70;10.50;;;21.20;86.00;;;;;;5001356;28;20991;-78
2022/09/14 11:17:48;;;;;;;13.20;10.40;;;21.20;86.10;;;;;;4997873;28;20468;-78
2022/09/14 11:20:28;;;;;;;12.70;10.90;;;21.20;86.10;;;;;;4996727;28;20526;-77
2022/09/14 11:23:11;;;;;;;12.20;10.37;;;21.20;86.10;;;;;;4998038;28;20479;-77
2022/09/14 11:25:45;;;;;;;12.20;10.33;;;21.20;86.20;;;;;;5000939;28;20501;-77
2022/09/14 11:28:18;;;;;;;13.10;10.90;;;21.30;86.30;;;;;;5001894;28;20457;-77
2022/09/14 11:30:50;;;;;;;13.90;10.93;;;21.30;86.40;;;;;;4997515;28;20522;-78
2022/09/14 11:33:25;;;;;;;15.83;10.70;;;21.40;86.30;;;;;;4999536;28;20574;-77
2022/09/14 11:36:03;;;;;;;11.30;10.10;;;21.40;86.10;;;;;;4999636;28;20518;-77
2022/09/14 11:38:35;;;;;;;12.00;10.53;;;21.40;86.10;;;;;;4997811;28;20767;-77
2022/09/14 11:41:13;;;;;;;13.60;11.40;;;21.50;86.10;;;;;;5001101;28;20877;-77
2022/09/14 11:43:47;;;;;;;15.03;11.90;;;21.40;86.20;;;;;;4997469;28;20455;-77
2022/09/14 11:46:21;;;;;;;13.93;12.00;;;21.50;86.20;;;;;;4995155;28;20452;-77
2022/09/14 11:48:54;;;;;;;15.13;12.77;;;21.50;86.20;;;;;;4998653;28;20708;-77
2022/09/14 11:51:26;;;;;;;14.60;12.47;;;21.50;86.20;;;;;;4998218;28;20491;-77
2022/09/14 11:53:54;;;;;;;15.33;12.83;;;21.50;86.30;;;;;;5001606;28;20502;-77
2022/09/14 11:56:26;;;;;;;14.90;12.50;;;21.60;86.40;;;;;;5001069;28;20453;-77
2022/09/14 11:58:56;;;;;;;13.37;11.20;;;21.60;86.30;;;;;;5003510;28;20464;-77
2022/09/14 12:01:28;;;;;;;13.50;12.10;;;21.70;86.40;;;;;;4998900;28;20557;-77
2022/09/14 12:04:23;;;;;;;16.53;13.27;;;21.70;86.40;;;;;;5004163;28;20467;-77
2022/09/14 12:06:54;;;;;;;12.67;11.30;;;21.80;86.40;;;;;;4986656;28;20726;-77
2022/09/14 12:09:39;;;;;;;13.93;12.53;;;21.80;86.40;;;;;;5002154;28;20974;-77
2022/09/14 12:12:35;;;;;;;14.53;11.60;;;21.90;86.40;;;;;;5003347;28;20490;-77
2022/09/14 12:15:19;;;;;;;14.20;11.17;;;21.90;86.40;;;;;;5002660;28;20488;-77
2022/09/14 12:17:47;;;;;;;16.40;11.17;;;22.00;86.40;;;;;;5000403;28;20979;-77
2022/09/14 12:20:43;;;;;;;13.33;11.13;;;22.00;86.40;;;;;;4999992;28;20511;-77
2022/09/14 12:23:31;;;;;;;12.33;10.20;;;22.10;86.20;;;;;;4996425;28;20487;-77
2022/09/14 12:26:33;;;;;;;14.27;11.67;;;22.10;86.20;;;;;;5004246;28;20516;-77
2022/09/14 12:29:20;;;;;;;13.60;10.90;;;22.10;86.20;;;;;;5005467;28;20527;-77
2022/09/14 12:32:04;;;;;;;15.70;12.37;;;22.20;86.10;;;;;;5001103;28;20476;-77
2022/09/14 12:34:33;;;;;;;14.03;11.80;;;22.20;86.00;;;;;;5001905;28;21219;-77
2022/09/14 12:37:26;;;;;;;15.37;11.40;;;22.20;86.00;;;;;;5005789;28;20465;-76
2022/09/14 12:40:31;;;;;;;13.17;10.43;;;22.20;85.90;;;;;;5001594;28;20452;-77
2022/09/14 12:43:46;;;;;;;11.80;10.23;;;22.20;85.90;;;;;;5003928;28;20554;-77
2022/09/14 12:46:37;;;;;;;13.77;11.27;;;22.20;86.00;;;;;;5002050;28;20456;-77
2022/09/14 12:49:38;;;;;;;14.87;11.03;;;22.20;86.00;;;;;;5017026;28;21064;-77
2022/09/14 12:52:30;;;;;;;14.73;11.97;;;22.20;86.00;;;;;;5003129;28;20503;-77
2022/09/14 12:55:15;;;;;;;14.93;10.93;;;22.20;86.00;;;;;;5003867;28;20527;-77
2022/09/14 12:57:54;;;;;;;12.70;10.83;;;22.20;86.00;;;;;;5002937;28;20452;-77
2022/09/14 13:00:22;;;;;;;11.20;9.97;;;22.20;86.00;;;;;;5015111;28;20520;-77
2022/09/14 13:03:13;;;;;;;14.40;11.40;;;22.20;86.00;;;;;;5003138;28;20550;-77